Meriden, Kansas
Current Conditions -  °F | °C
As of 2:53 PM on Friday 24 Oct 2014 (Local Time) from KTOP Reporting Station
Clear Clear  
Wind Chill: 77°   Ceiling: Unl
Heat Index: 79°   Visibility: 10mi
Dew Point: 65°   Wind: 7mph
Humidity: 66%   Direction: 190°S
Pressure: 29.95"   Gusts: NA
Location:  39.19°N, 95.57°W
Report Text: KTOP 241953Z 19006KT 10SM CLR 25/18 A2995 RMK AO2 SLP138 T02500183
Loading
Personal Weather Stations






























Interactive Weather Map
Tropical Storm Tracking
New forecast layout! Learn more

10-Day Weather Forecast

Advertisements
Track Severe Weather on mobile